AirPuff current run:
Zulu Time - Thu Sep 3 23:20:01 UTC 2015
Pacific Time - Thu Sep 3 16:20:01 PDT 2015

2015/09/03 22:55 KEDU 032255Z AUTO 18007KT 10SM CLR 27/09 A2980 RMK AO1
2015/09/03 22:53 KVCB 032253Z AUTO 23007KT 10SM CLR 28/08 A2981 RMK AO2 SLP094 T02780083
2015/09/03 22:58 KSUU 032258Z AUTO 21011G17KT 10SM CLR 26/07 A2979 RMK AO2 SLP094 T02620066 PWINO PNO $
2015/09/03 22:53 KCCR 032253Z AUTO 21013KT 10SM CLR 24/07 A2983 RMK AO2 SLP089 T02440072
2015/09/03 22:53 KLVK 032253Z 27014G20KT 10SM CLR 25/08 A2984 RMK AO2 SLP102 T02500083
2015/09/03 22:54 KHWD 032254Z 29015KT 9SM CLR 20/12 A2987 RMK AO2 SLP124 T02000122
2015/09/03 22:53 KOAK 032253Z 25010KT 10SM FEW023 20/12 A2988 RMK AO2 SLP116 T02000122
2015/09/03 22:53 KSJC 032253Z 32014KT 10SM FEW018 23/09 A2985 RMK AO2 SLP109 T02280094
2015/09/03 22:47 KSQL 032247Z 26015G20KT 10SM FEW025 20/11 A2989
2015/09/03 22:56 KNUQ 032256Z 28013G18KT 10SM CLR 23/08 A2986 RMK AO2 SLP114 T02330078
2015/09/03 21:47 KPAO 032147Z 32020KT 20SM SKC 24/11 A2988